Time;durP1;ratioP1;P1;durP2;ratioP2;P2;SDS_P1;SDS_P2;PMS_P1;PMS_P2;Temp;Humidity;BMP_temperature;BMP_pressure;BME280_temperature;BME280_humidity;BME280_pressure;Samples;Min_cycle;Max_cycle;Signal;HPM_P1;HPM_P2
2021/07/28 00:01:53;;;;;;;28.55;20.70;;;;;;;22.37;65.83;100513.50;4873797;28;123618;-77
2021/07/28 00:04:20;;;;;;;27.05;19.08;;;;;;;22.46;65.83;100529.06;4870342;28;121947;-77
2021/07/28 00:06:46;;;;;;;29.63;19.92;;;;;;;22.43;66.07;100516.91;4849771;28;122449;-78
2021/07/28 00:09:12;;;;;;;27.70;19.17;;;;;;;22.37;65.90;100510.69;4887231;28;122370;-77
2021/07/28 00:11:37;;;;;;;27.85;19.40;;;;;;;22.41;66.15;100519.50;4870167;28;122320;-77
2021/07/28 00:14:03;;;;;;;27.33;19.73;;;;;;;22.40;66.14;100512.41;4870496;28;121920;-77
2021/07/28 00:16:29;;;;;;;25.33;17.40;;;;;;;22.38;66.07;100520.56;4882408;28;122542;-78
2021/07/28 00:24:19;;;;;;;24.88;17.70;;;;;;;22.31;65.90;100504.47;4884412;28;121926;-77
2021/07/28 00:26:44;;;;;;;22.83;17.48;;;;;;;22.27;66.36;100504.78;4870054;28;122053;-77
2021/07/28 00:29:10;;;;;;;25.40;17.73;;;;;;;22.30;66.31;100508.53;4882226;28;121951;-77
2021/07/28 00:31:36;;;;;;;24.23;17.70;;;;;;;22.29;66.33;100507.03;4869877;28;122205;-78
2021/07/28 00:34:01;;;;;;;25.80;18.63;;;;;;;22.27;66.59;100492.88;4888549;28;123427;-77
2021/07/28 00:36:27;;;;;;;25.05;17.83;;;;;;;22.24;66.48;100493.91;4866110;28;123436;-78
2021/07/28 00:38:52;;;;;;;26.60;17.75;;;;;;;22.23;66.24;100498.75;4868776;28;122323;-78
2021/07/28 00:41:18;;;;;;;25.85;18.15;;;;;;;22.21;66.01;100494.97;4885691;28;121752;-79
2021/07/28 00:43:47;;;;;;;25.13;18.27;;;;;;;22.21;66.44;100501.31;4888451;28;121971;-77
2021/07/28 00:46:12;;;;;;;27.30;18.13;;;;;;;22.22;66.54;100502.06;4886062;28;121966;-78
2021/07/28 00:48:40;;;;;;;26.33;18.15;;;;;;;22.20;66.71;100501.84;4865906;28;124895;-77
2021/07/28 00:51:06;;;;;;;25.25;18.42;;;;;;;22.20;66.50;100499.06;4852730;28;122246;-77
2021/07/28 00:53:32;;;;;;;27.27;19.02;;;;;;;22.17;66.90;100497.34;4887616;28;122274;-77
2021/07/28 00:56:00;;;;;;;24.30;18.08;;;;;;;22.16;66.63;100490.25;4885653;28;122119;-77
2021/07/28 00:58:31;;;;;;;26.83;19.50;;;;;;;22.15;67.01;100494.34;4885310;28;122755;-77
2021/07/28 01:00:57;;;;;;;26.02;18.48;;;;;;;22.13;66.84;100485.75;4884993;28;122285;-78
2021/07/28 01:03:22;;;;;;;25.55;18.25;;;;;;;22.12;66.52;100487.03;4882895;28;123457;-77
2021/07/28 01:05:48;;;;;;;24.25;17.88;;;;;;;22.07;66.63;100491.44;4873195;28;122009;-77
2021/07/28 01:08:14;;;;;;;26.60;18.10;;;;;;;22.09;66.73;100497.25;4884414;28;121601;-77
2021/07/28 01:10:42;;;;;;;23.55;17.75;;;;;;;22.07;67.05;100499.06;4865915;28;121999;-78
2021/07/28 01:13:08;;;;;;;26.52;18.45;;;;;;;22.02;67.37;100493.03;4864255;28;122326;-77
2021/07/28 01:18:05;;;;;;;22.90;16.95;;;;;;;22.02;66.64;100490.22;4883854;28;123957;-77
2021/07/28 01:20:39;;;;;;;23.45;17.48;;;;;;;22.00;66.82;100498.41;4859859;28;123095;-77
2021/07/28 01:23:10;;;;;;;23.40;17.30;;;;;;;21.91;66.78;100482.03;4868616;28;121924;-77
2021/07/28 01:25:37;;;;;;;23.50;16.77;;;;;;;21.96;66.96;100483.97;4869204;28;122321;-77
2021/07/28 01:28:06;;;;;;;25.50;16.73;;;;;;;21.93;66.27;100485.03;4890207;28;121651;-77
2021/07/28 01:30:35;;;;;;;24.30;17.25;;;;;;;21.90;66.44;100476.97;4884717;28;122913;-77
2021/07/28 01:33:02;;;;;;;23.00;16.58;;;;;;;21.90;66.21;100477.72;4869872;28;128525;-77
2021/07/28 01:35:35;;;;;;;24.52;16.83;;;;;;;21.90;67.10;100474.19;4851327;28;123799;-77
2021/07/28 01:38:07;;;;;;;22.45;15.68;;;;;;;21.86;66.85;100466.13;4860803;28;122075;-77
2021/07/28 01:40:39;;;;;;;20.30;14.63;;;;;;;21.87;67.30;100478.06;4874535;28;122184;-77
2021/07/28 01:43:14;;;;;;;21.27;16.02;;;;;;;21.86;66.93;100468.94;4881589;28;122901;-78
2021/07/28 01:45:41;;;;;;;22.73;16.63;;;;;;;21.82;67.55;100471.28;4862139;28;121762;-78
2021/07/28 01:48:08;;;;;;;24.50;17.50;;;;;;;21.85;66.69;100469.47;4867445;28;122641;-78
2021/07/28 01:50:37;;;;;;;21.63;15.30;;;;;;;21.84;66.96;100463.13;4872465;28;123743;-78
2021/07/28 01:53:04;;;;;;;23.75;15.90;;;;;;;21.84;67.51;100463.13;4883091;28;122676;-77
2021/07/28 01:55:33;;;;;;;23.40;15.48;;;;;;;21.82;66.60;100467.75;4866669;28;121792;-77
2021/07/28 01:57:59;;;;;;;21.40;15.45;;;;;;;21.80;67.00;100464.72;4868154;28;122427;-79
2021/07/28 02:00:28;;;;;;;22.77;15.93;;;;;;;21.78;66.95;100456.91;4869604;28;122929;-77
2021/07/28 02:03:02;;;;;;;22.85;14.48;;;;;;;21.79;67.21;100461.19;4868522;28;123271;-77
2021/07/28 02:05:35;;;;;;;22.08;14.88;;;;;;;21.79;67.35;100460.44;4865690;28;122506;-77
2021/07/28 02:08:08;;;;;;;20.93;15.37;;;;;;;21.78;67.25;100462.47;4868508;28;122257;-78
2021/07/28 02:10:46;;;;;;;21.15;15.27;;;;;;;21.76;67.13;100462.22;4882945;28;122353;-77
2021/07/28 02:13:13;;;;;;;21.25;15.88;;;;;;;21.80;67.25;100470.31;4884043;28;121915;-77
2021/07/28 02:15:39;;;;;;;25.17;16.13;;;;;;;21.80;66.93;100468.28;4884579;28;122933;-78
2021/07/28 02:18:05;;;;;;;19.90;14.68;;;;;;;21.80;67.18;100470.31;4885636;28;122237;-77
2021/07/28 02:20:33;;;;;;;23.73;15.68;;;;;;;21.82;67.60;100465.72;4867107;28;123871;-77
2021/07/28 02:23:04;;;;;;;22.00;16.23;;;;;;;21.81;67.02;100463.44;4865125;28;122502;-77
2021/07/28 02:25:30;;;;;;;21.35;15.65;;;;;;;21.81;67.20;100464.19;4868765;28;121887;-78
2021/07/28 02:27:57;;;;;;;23.83;15.93;;;;;;;21.79;67.77;100469.56;4878308;28;122511;-77
2021/07/28 02:30:28;;;;;;;26.20;17.52;;;;;;;21.82;67.16;100465.72;4865183;28;124503;-77
2021/07/28 02:32:56;;;;;;;24.45;16.75;;;;;;;21.80;67.08;100459.16;4871379;28;122040;-77
2021/07/28 02:35:22;;;;;;;24.25;16.90;;;;;;;21.80;67.43;100456.34;4866459;28;121859;-77
2021/07/28 02:37:48;;;;;;;23.88;17.27;;;;;;;21.80;67.63;100451.53;4866832;28;122717;-77
2021/07/28 02:40:17;;;;;;;22.73;16.67;;;;;;;21.80;67.77;100445.94;4884215;28;122793;-78
2021/07/28 02:42:43;;;;;;;26.92;18.33;;;;;;;21.80;67.78;100451.53;4882928;28;122439;-77
2021/07/28 02:45:12;;;;;;;28.13;18.50;;;;;;;21.80;67.22;100451.53;4883946;28;121944;-77
2021/07/28 02:47:39;;;;;;;27.20;18.92;;;;;;;21.76;67.52;100446.25;4883972;28;122905;-77
2021/07/28 02:50:09;;;;;;;26.73;18.65;;;;;;;21.75;67.79;100449.56;4882252;28;121763;-77
2021/07/28 02:52:37;;;;;;;27.20;18.42;;;;;;;21.73;67.05;100449.34;4883622;28;122629;-78
2021/07/28 02:55:06;;;;;;;26.85;19.02;;;;;;;21.75;67.48;100444.72;4870684;28;121966;-77
2021/07/28 02:57:40;;;;;;;25.63;18.45;;;;;;;21.74;67.43;100448.81;4884082;28;122990;-77
2021/07/28 03:00:10;;;;;;;28.35;19.55;;;;;;;21.73;67.86;100438.94;4883714;28;122076;-77
2021/07/28 03:02:38;;;;;;;28.00;19.27;;;;;;;21.73;68.02;100444.50;4885843;28;124559;-77
2021/07/28 03:05:07;;;;;;;28.60;18.70;;;;;;;21.74;67.74;100440.44;4867073;28;122902;-77
2021/07/28 03:07:38;;;;;;;29.00;20.20;;;;;;;21.73;67.26;100444.50;4864404;28;124390;-77
2021/07/28 03:10:04;;;;;;;26.85;19.58;;;;;;;21.68;67.91;100433.44;4885418;28;121902;-78
2021/07/28 03:12:34;;;;;;;27.10;19.88;;;;;;;21.71;67.58;100437.97;4884852;28;121804;-77
2021/07/28 03:15:00;;;;;;;27.00;19.40;;;;;;;21.69;67.76;100435.72;4887376;28;122211;-77
2021/07/28 03:17:33;;;;;;;31.00;20.20;;;;;;;21.70;67.75;100442.03;4889781;28;122561;-77
2021/07/28 03:20:01;;;;;;;34.10;21.02;;;;;;;21.72;67.71;100431.09;4866475;28;122351;-77
2021/07/28 03:22:27;;;;;;;32.92;20.98;;;;;;;21.69;67.35;100429.38;4884796;28;122160;-78
2021/07/28 03:24:57;;;;;;;33.22;21.23;;;;;;;21.72;67.68;100436.69;4887231;28;122085;-77
2021/07/28 03:27:23;;;;;;;33.45;21.70;;;;;;;21.67;67.78;100431.94;4887824;28;121971;-77
2021/07/28 03:29:51;;;;;;;31.45;20.25;;;;;;;;;;4856499;28;123377;-77
2021/07/28 03:32:16;;;;;;;33.92;20.80;;;;;;;21.71;68.04;100437.97;4884588;28;121998;-78
2021/07/28 03:34:45;;;;;;;31.33;21.60;;;;;;;21.72;68.24;100445.06;4900317;28;122315;-78
2021/07/28 03:37:13;;;;;;;31.17;21.98;;;;;;;21.72;67.50;100445.06;4867095;28;124466;-77
2021/07/28 03:39:40;;;;;;;34.58;22.70;;;;;;;21.70;68.15;100444.84;4888207;28;122081;-77
2021/07/28 03:42:06;;;;;;;34.97;22.63;;;;;;;21.68;67.74;100444.63;4884879;28;123559;-77
2021/07/28 03:44:33;;;;;;;31.77;21.92;;;;;;;21.64;67.72;100430.97;4867429;28;121888;-77
2021/07/28 03:46:58;;;;;;;31.30;21.95;;;;;;;21.66;67.21;100442.38;4863354;28;122393;-77
2021/07/28 03:49:25;;;;;;;37.00;22.73;;;;;;;21.62;67.88;100427.97;4886821;28;122421;-77
2021/07/28 03:51:51;;;;;;;35.10;21.85;;;;;;;21.65;67.53;100434.53;4885643;28;122267;-77
2021/07/28 03:54:20;;;;;;;33.35;22.13;;;;;;;21.62;67.84;100430.00;4888008;28;121914;-77
2021/07/28 03:56:45;;;;;;;31.13;21.30;;;;;;;21.59;67.38;100425.50;4886238;28;127830;-77
2021/07/28 03:59:11;;;;;;;35.22;21.70;;;;;;;21.62;67.70;100424.44;4871474;28;121983;-78
2021/07/28 04:01:36;;;;;;;34.20;22.42;;;;;;;21.61;67.45;100432.06;4887294;28;122936;-77
2021/07/28 04:04:02;;;;;;;35.85;23.63;;;;;;;21.61;67.23;100439.69;4854376;28;121976;-78
2021/07/28 04:06:30;;;;;;;34.35;22.92;;;;;;;21.61;67.25;100431.31;4885307;28;122262;-77
2021/07/28 04:08:56;;;;;;;33.17;22.23;;;;;;;21.55;67.46;100430.66;4887815;28;122217;-77
2021/07/28 04:11:21;;;;;;;33.63;22.90;;;;;;;21.54;67.68;100423.56;4871927;28;122133;-77
2021/07/28 04:13:49;;;;;;;38.28;24.92;;;;;;;21.56;67.34;100426.56;4884925;28;123297;-77
2021/07/28 04:16:19;;;;;;;33.17;21.73;;;;;;;21.57;66.93;100428.06;4883468;28;124739;-78
2021/07/28 04:18:45;;;;;;;36.40;23.35;;;;;;;21.51;67.40;100424.59;4880495;28;122431;-78
2021/07/28 04:21:10;;;;;;;35.58;22.08;;;;;;;21.57;67.85;100436.44;4867484;28;122918;-77
2021/07/28 04:23:36;;;;;;;31.95;21.25;;;;;;;21.57;67.38;100419.69;4888147;28;124490;-77
2021/07/28 04:26:04;;;;;;;31.88;21.90;;;;;;;21.56;67.23;100423.78;4885468;28;122148;-77
2021/07/28 04:28:30;;;;;;;31.98;21.90;;;;;;;21.57;67.46;100423.25;4887128;28;122556;-78
2021/07/28 04:30:55;;;;;;;30.77;21.05;;;;;;;21.57;67.03;100428.84;4884837;28;122881;-77
2021/07/28 04:33:21;;;;;;;33.08;21.45;;;;;;;21.58;67.71;100432.38;4887045;28;123577;-78
2021/07/28 04:35:46;;;;;;;29.38;19.15;;;;;;;21.57;67.78;100434.41;4869612;28;123650;-77
2021/07/28 04:38:12;;;;;;;31.17;21.45;;;;;;;21.52;67.86;100417.75;4886847;28;122475;-77
2021/07/28 04:40:38;;;;;;;30.48;19.92;;;;;;;21.55;67.89;100430.66;4866580;28;122443;-77
2021/07/28 04:43:03;;;;;;;31.63;20.30;;;;;;;21.57;67.76;100428.06;4888495;28;122962;-77
2021/07/28 04:45:29;;;;;;;27.50;19.25;;;;;;;21.55;67.77;100427.84;4885172;28;122211;-77
2021/07/28 04:47:57;;;;;;;29.83;19.77;;;;;;;21.59;67.77;100422.72;4884129;28;124794;-77
2021/07/28 04:50:22;;;;;;;28.52;19.38;;;;;;;21.62;67.75;100424.44;4886051;28;123490;-77
2021/07/28 04:52:48;;;;;;;27.85;19.10;;;;;;;21.64;67.66;100422.59;4893679;22;123114;-75
2021/07/28 04:55:14;;;;;;;28.73;19.70;;;;;;;21.69;66.95;100429.38;4867681;28;124515;-76
2021/07/28 04:57:40;;;;;;;33.50;20.83;;;;;;;21.72;67.51;100434.63;4883638;28;122622;-75
2021/07/28 05:00:07;;;;;;;27.50;18.65;;;;;;;21.73;67.51;100421.44;4884364;28;123884;-75
2021/07/28 05:02:35;;;;;;;30.98;19.83;;;;;;;21.81;67.74;100419.53;4857156;28;123292;-75
2021/07/28 05:05:01;;;;;;;28.17;18.58;;;;;;;21.83;67.29;100413.41;4852166;28;122106;-75
2021/07/28 05:07:27;;;;;;;25.40;17.48;;;;;;;21.81;67.27;100413.19;4863861;28;121895;-75
2021/07/28 05:09:53;;;;;;;29.23;18.80;;;;;;;21.87;67.30;100413.84;4866411;28;122299;-75
2021/07/28 05:12:19;;;;;;;29.20;19.10;;;;;;;21.91;67.03;100409.44;4865708;28;122214;-75
2021/07/28 05:14:45;;;;;;;25.83;18.50;;;;;;;21.91;66.33;100412.22;4863178;28;127669;-75
2021/07/28 05:17:12;;;;;;;29.25;18.42;;;;;;;21.89;67.06;100414.81;4863692;28;122582;-75
2021/07/28 05:19:37;;;;;;;26.08;18.00;;;;;;;21.89;66.70;100408.47;4879434;28;121854;-75
2021/07/28 05:22:04;;;;;;;27.83;19.60;;;;;;;21.89;66.50;100409.22;4848210;28;123558;-75
2021/07/28 05:24:29;;;;;;;28.95;19.00;;;;;;;21.86;66.68;100403.97;4865899;28;121927;-75
2021/07/28 05:26:55;;;;;;;30.73;19.80;;;;;;;21.89;66.30;100414.81;4853007;28;122836;-75
2021/07/28 05:29:21;;;;;;;28.90;19.73;;;;;;;21.90;67.06;100412.75;4863136;28;122560;-75
2021/07/28 05:31:47;;;;;;;29.30;20.42;;;;;;;21.91;66.42;100412.22;4862358;28;122004;-75
2021/07/28 05:34:13;;;;;;;27.25;18.98;;;;;;;21.93;66.68;100408.91;4867108;28;122706;-76
2021/07/28 05:36:39;;;;;;;30.40;19.88;;;;;;;21.92;66.37;100413.72;4863503;28;122615;-75
2021/07/28 05:39:05;;;;;;;28.23;19.35;;;;;;;21.86;66.99;100404.72;4863046;28;122239;-76
2021/07/28 05:41:31;;;;;;;31.90;18.73;;;;;;;21.95;67.54;100407.06;4865395;28;125019;-75
2021/07/28 05:43:57;;;;;;;28.98;19.75;;;;;;;21.96;66.22;100414.16;4848006;28;123863;-75
2021/07/28 05:46:23;;;;;;;31.33;20.05;;;;;;;21.96;66.34;100408.56;4848886;28;122180;-75
2021/07/28 05:48:53;;;;;;;30.85;21.02;;;;;;;21.94;66.06;100411.16;4866834;28;122130;-75
2021/07/28 05:51:22;;;;;;;34.90;21.05;;;;;;;21.93;66.57;100409.66;4845415;28;122402;-75
2021/07/28 05:53:47;;;;;;;31.67;20.00;;;;;;;21.85;66.98;100396.88;4865111;28;122308;-75
2021/07/28 05:56:13;;;;;;;31.48;20.65;;;;;;;21.96;66.70;100405.03;4863177;28;122808;-75
2021/07/28 05:58:39;;;;;;;28.45;19.58;;;;;;;22.00;66.86;100403.44;4848917;28;122401;-76
2021/07/28 06:01:05;;;;;;;30.38;19.25;;;;;;;22.02;66.80;100406.44;4848111;28;123652;-75
2021/07/28 06:03:31;;;;;;;29.27;19.50;;;;;;;22.04;66.99;100403.16;4862648;28;122447;-75
2021/07/28 06:06:00;;;;;;;28.88;20.98;;;;;;;22.11;66.22;100410.13;4865872;28;124581;-76
2021/07/28 06:08:26;;;;;;;31.58;20.60;;;;;;;22.10;66.16;100398.19;4864151;28;122890;-76
2021/07/28 06:10:52;;;;;;;31.55;21.58;;;;;;;22.15;66.72;100399.38;4867944;28;123121;-75
2021/07/28 06:13:18;;;;;;;26.63;18.35;;;;;;;22.21;66.66;100397.22;4863501;28;121956;-75
2021/07/28 06:15:47;;;;;;;31.60;20.63;;;;;;;22.22;66.57;100390.34;4848833;28;122203;-76
2021/07/28 06:18:17;;;;;;;29.45;20.27;;;;;;;22.24;66.78;100402.50;4846315;28;123504;-75
2021/07/28 06:20:45;;;;;;;33.47;21.60;;;;;;;22.27;66.41;100397.88;4843355;28;123105;-78
2021/07/28 06:23:14;;;;;;;29.77;21.05;;;;;;;22.29;66.43;100400.88;4877572;28;122690;-75
2021/07/28 06:25:40;;;;;;;30.67;20.30;;;;;;;22.34;66.27;100402.78;4849726;28;123809;-75
2021/07/28 06:28:05;;;;;;;32.78;20.88;;;;;;;22.39;66.71;100398.38;4863697;28;121817;-75
2021/07/28 06:30:34;;;;;;;32.35;20.95;;;;;;;22.40;66.26;100402.69;4862788;28;122889;-75
2021/07/28 06:32:59;;;;;;;33.20;21.48;;;;;;;22.37;65.77;100401.72;4869782;28;122695;-76
2021/07/28 06:35:25;;;;;;;28.70;20.83;;;;;;;22.45;65.97;100401.81;4865657;28;122336;-75
2021/07/28 06:37:52;;;;;;;30.38;20.58;;;;;;;22.46;65.29;100406.84;4867146;28;124000;-75
2021/07/28 06:40:18;;;;;;;27.20;19.42;;;;;;;22.49;65.46;100403.00;4866031;28;122567;-75
2021/07/28 06:42:43;;;;;;;29.95;20.08;;;;;;;22.53;66.05;100403.41;4867451;28;122539;-75
2021/07/28 06:45:09;;;;;;;25.85;19.80;;;;;;;22.58;66.04;100396.94;4866280;28;122493;-76
2021/07/28 06:47:35;;;;;;;28.10;20.48;;;;;;;22.63;66.07;100398.88;4862037;28;123589;-75
2021/07/28 06:50:00;;;;;;;26.63;18.58;;;;;;;22.71;66.48;100407.34;4868176;28;121888;-75
2021/07/28 06:52:28;;;;;;;24.73;17.13;;;;;;;22.76;65.73;100405.72;4870190;28;122703;-75
2021/07/28 06:54:55;;;;;;;28.00;20.20;;;;;;;22.83;65.13;100413.47;4867060;28;122119;-75
2021/07/28 06:57:27;;;;;;;24.75;18.88;;;;;;;22.84;64.99;100393.34;4865139;28;121916;-75
2021/07/28 06:59:57;;;;;;;25.77;17.75;;;;;;;22.84;65.21;100392.59;4864901;28;123574;-75
2021/07/28 07:02:24;;;;;;;23.67;17.60;;;;;;;22.91;64.91;100400.31;4868496;28;122265;-75
2021/07/28 07:04:49;;;;;;;23.10;16.15;;;;;;;22.90;64.72;100396.00;4864756;28;122083;-75
2021/07/28 07:07:15;;;;;;;19.95;15.25;;;;;;;22.89;64.38;100406.44;4866804;28;125357;-75
2021/07/28 07:09:40;;;;;;;21.05;15.70;;;;;;;22.93;64.13;100406.09;4868421;28;122298;-75
2021/07/28 07:12:06;;;;;;;21.83;15.73;;;;;;;22.90;63.45;100401.59;4865544;28;122135;-75
2021/07/28 07:14:35;;;;;;;21.65;15.63;;;;;;;22.88;64.29;100399.34;4866699;28;122853;-75
2021/07/28 07:17:03;;;;;;;19.70;15.30;;;;;;;22.98;64.01;100401.72;4850116;28;122533;-76
2021/07/28 07:19:29;;;;;;;22.98;16.73;;;;;;;22.95;64.32;100381.19;4881820;28;123877;-75
2021/07/28 07:21:56;;;;;;;19.13;14.55;;;;;;;23.08;64.62;100406.28;4866509;28;122099;-75
2021/07/28 07:24:23;;;;;;;20.15;14.10;;;;;;;23.08;64.28;100403.47;4866098;28;124001;-76
2021/07/28 07:26:49;;;;;;;20.52;14.70;;;;;;;23.11;64.34;100412.81;4869065;28;123301;-76
2021/07/28 07:29:14;;;;;;;21.90;16.13;;;;;;;23.13;64.12;100407.44;4866953;28;122532;-75
2021/07/28 07:31:41;;;;;;;18.70;15.02;;;;;;;23.14;64.04;100401.28;4865077;28;123135;-75
2021/07/28 07:34:07;;;;;;;23.10;15.63;;;;;;;23.16;63.35;100397.94;4865914;28;124344;-76
2021/07/28 07:36:33;;;;;;;20.30;14.95;;;;;;;23.14;63.72;100387.31;4872235;28;122588;-75
2021/07/28 07:39:02;;;;;;;20.48;15.43;;;;;;;23.15;64.50;100388.81;4866345;28;122495;-75
2021/07/28 07:41:28;;;;;;;19.88;14.77;;;;;;;23.20;63.77;100401.94;4867225;28;122449;-75
2021/07/28 07:43:57;;;;;;;20.27;15.70;;;;;;;23.15;63.54;100388.06;4867584;28;122173;-75
2021/07/28 07:46:23;;;;;;;16.52;12.75;;;;;;;23.19;63.06;100394.84;4866300;28;122708;-75
2021/07/28 07:48:49;;;;;;;21.00;13.15;;;;;;;23.17;63.02;100407.84;4863875;28;122743;-75
2021/07/28 07:51:14;;;;;;;15.75;11.38;;;;;;;23.13;63.00;100394.19;4850612;28;123096;-75
2021/07/28 07:53:40;;;;;;;13.80;11.18;;;;;;;23.06;61.85;100399.72;4865028;28;122615;-75
2021/07/28 07:56:09;;;;;;;14.88;10.55;;;;;;;23.03;61.66;100401.56;4864465;28;122630;-75
2021/07/28 07:58:35;;;;;;;15.98;11.25;;;;;;;23.03;61.63;100398.03;4868487;28;122029;-75
2021/07/28 08:01:08;;;;;;;14.07;10.02;;;;;;;23.08;62.13;100402.72;4867459;28;122053;-75
2021/07/28 08:03:36;;;;;;;13.10;10.57;;;;;;;23.16;62.40;100389.56;4865766;28;122818;-75
2021/07/28 08:06:07;;;;;;;13.10;9.68;;;;;;;23.27;62.32;100390.03;4865144;28;123521;-75
2021/07/28 08:08:32;;;;;;;12.40;9.88;;;;;;;23.42;61.65;100385.88;4849392;28;122330;-75
2021/07/28 08:11:00;;;;;;;13.98;9.88;;;;;;;23.56;61.76;100384.53;4867019;28;122322;-75
2021/07/28 08:13:27;;;;;;;14.98;11.32;;;;;;;23.69;61.40;100387.25;4862266;28;123655;-75
2021/07/28 08:15:58;;;;;;;14.07;10.65;;;;;;;23.83;60.71;100388.63;4864610;28;121959;-75
2021/07/28 08:18:23;;;;;;;15.27;10.48;;;;;;;23.88;60.34;100381.38;4872711;28;122406;-76
2021/07/28 08:20:52;;;;;;;13.23;8.35;;;;;;;23.97;59.28;100394.13;4869721;28;122631;-75
2021/07/28 08:23:18;;;;;;;11.90;8.85;;;;;;;23.91;59.23;100393.56;4865467;28;122329;-75
2021/07/28 08:25:44;;;;;;;12.27;8.73;;;;;;;23.84;59.67;100394.97;4863206;28;122072;-75
2021/07/28 08:28:12;;;;;;;12.25;8.00;;;;;;;23.78;59.85;100400.75;4865919;28;123268;-75
2021/07/28 08:30:39;;;;;;;14.55;9.45;;;;;;;23.68;59.17;100391.34;4849387;28;122499;-75
2021/07/28 08:33:05;;;;;;;15.50;10.07;;;;;;;23.58;59.38;100401.50;4863068;28;122707;-75
2021/07/28 08:35:53;;;;;;;14.52;9.70;;;;;;;23.53;60.30;100391.19;4851943;28;123963;-77
2021/07/28 08:38:21;;;;;;;13.63;11.07;;;;;;;23.62;60.37;100392.78;4848761;28;124095;-76
2021/07/28 08:40:58;;;;;;;16.15;10.52;;;;;;;23.75;60.59;100387.84;4867146;28;122636;-75
2021/07/28 08:43:30;;;;;;;13.32;9.80;;;;;;;23.92;60.43;100392.25;4867439;28;122229;-75
2021/07/28 08:46:03;;;;;;;14.40;9.38;;;;;;;24.02;59.61;100391.19;4877770;28;122654;-75
2021/07/28 08:48:29;;;;;;;12.07;9.68;;;;;;;24.19;59.18;100391.47;4848006;28;122571;-75
2021/07/28 08:51:00;;;;;;;13.00;8.40;;;;;;;24.34;58.98;100388.00;4879724;28;122875;-75
2021/07/28 08:53:28;;;;;;;10.07;8.18;;;;;;;24.40;59.04;100379.44;4847765;28;122163;-76
2021/07/28 08:55:57;;;;;;;11.88;7.82;;;;;;;24.58;58.19;100400.06;4850163;28;122332;-75
2021/07/28 08:58:26;;;;;;;14.57;8.50;;;;;;;24.56;57.33;100405.47;4863899;28;122744;-75
2021/07/28 09:00:53;;;;;;;11.80;8.52;;;;;;;24.53;58.46;100393.31;4879983;28;123727;-75
2021/07/28 09:03:19;;;;;;;12.10;8.25;;;;;;;24.59;57.89;100395.94;4869418;28;122507;-75
2021/07/28 09:05:50;;;;;;;11.40;8.55;;;;;;;24.59;57.58;100401.56;4860152;28;122580;-74
2021/07/28 09:08:29;;;;;;;12.07;8.07;;;;;;;24.51;57.08;100404.34;4865483;28;122531;-75
2021/07/28 09:11:08;;;;;;;10.73;8.48;;;;;;;24.40;56.92;100407.47;4864584;28;122189;-74
2021/07/28 09:13:39;;;;;;;10.80;7.93;;;;;;;24.39;58.48;100403.19;4861053;28;123507;-76
2021/07/28 09:16:09;;;;;;;11.65;8.10;;;;;;;24.52;57.81;100394.63;4863834;28;122126;-75
2021/07/28 09:18:39;;;;;;;14.13;8.05;;;;;;;24.65;57.67;100399.34;4863254;28;122776;-75
2021/07/28 09:21:25;;;;;;;10.73;8.18;;;;;;;24.69;56.68;100411.69;4862607;28;122172;-75
2021/07/28 09:24:01;;;;;;;12.13;8.00;;;;;;;24.74;57.26;100390.38;4864053;28;122399;-76
2021/07/28 09:29:21;;;;;;;11.63;8.05;;;;;;;24.91;56.22;100387.06;4861439;28;122659;-75
2021/07/28 09:32:06;;;;;;;10.30;7.32;;;;;;;25.06;56.55;100398.34;4865890;28;122476;-75
2021/07/28 09:34:39;;;;;;;12.27;7.82;;;;;;;25.14;56.42;100387.13;4866768;28;123194;-75
2021/07/28 09:37:13;;;;;;;;;;;;;;;25.32;56.24;100392.41;4860812;28;123358;-75
2021/07/28 09:39:52;;;;;;;12.48;7.43;;;;;;;25.35;56.22;100396.88;4863923;28;122994;-75
2021/07/28 09:42:30;;;;;;;10.60;8.18;;;;;;;25.34;55.87;100397.44;4864018;28;122959;-75
2021/07/28 09:44:59;;;;;;;9.70;7.40;;;;;;;25.42;55.85;100386.97;4865460;28;122849;-75
2021/07/28 09:47:37;;;;;;;10.88;6.68;;;;;;;25.48;55.20;100395.94;4862985;28;122324;-74
2021/07/28 09:50:05;;;;;;;8.65;6.47;;;;;;;25.52;54.42;100401.19;4867873;28;122679;-75
2021/07/28 09:52:34;;;;;;;9.70;6.63;;;;;;;25.51;53.72;100394.06;4862672;28;122059;-75
2021/07/28 09:55:29;;;;;;;10.60;6.68;;;;;;;25.45;54.77;100394.25;4863288;28;123076;-75
2021/07/28 09:57:57;;;;;;;11.57;6.65;;;;;;;25.28;53.14;100389.19;4862874;28;122287;-74
2021/07/28 10:00:29;;;;;;;10.88;6.35;;;;;;;25.15;53.84;100391.44;4864832;28;122227;-75
2021/07/28 10:03:17;;;;;;;9.48;6.70;;;;;;;25.07;54.52;100386.56;4848969;28;122726;-75
2021/07/28 10:05:42;;;;;;;11.48;7.20;;;;;;;25.11;55.19;100380.59;4863099;28;122215;-73
2021/07/28 10:08:11;;;;;;;11.48;7.20;;;;;;;25.12;55.20;100376.47;4864821;28;122799;-76
2021/07/28 10:10:39;;;;;;;11.25;7.57;;;;;;;25.14;54.50;100392.75;4863690;28;123168;-75
2021/07/28 10:13:06;;;;;;;10.52;7.00;;;;;;;25.13;53.80;100374.41;4867863;28;126140;-75
2021/07/28 10:15:33;;;;;;;7.68;6.88;;;;;;;25.17;54.53;100377.59;4877299;28;122939;-75
2021/07/28 10:18:00;;;;;;;9.32;6.20;;;;;;;25.23;54.53;100375.34;4865058;28;121992;-75
2021/07/28 10:20:26;;;;;;;9.82;6.10;;;;;;;25.21;53.86;100373.09;4863278;28;122470;-75
2021/07/28 10:22:53;;;;;;;9.60;6.07;;;;;;;25.24;53.58;100383.22;4862453;28;122456;-77
2021/07/28 10:25:21;;;;;;;11.48;6.80;;;;;;;25.30;54.44;100380.22;4863789;28;122436;-75
2021/07/28 10:27:49;;;;;;;10.95;6.80;;;;;;;25.32;53.61;100380.44;4880708;28;123982;-75
2021/07/28 10:30:15;;;;;;;7.63;5.32;;;;;;;25.28;53.22;100374.41;4861354;28;122109;-75
2021/07/28 10:32:45;;;;;;;11.23;5.93;;;;;;;25.23;53.33;100366.94;4859970;28;122334;-75
2021/07/28 10:35:22;;;;;;;7.53;5.45;;;;;;;25.20;53.27;100388.44;4867113;28;122030;-75
2021/07/28 10:37:57;;;;;;;8.27;5.72;;;;;;;25.11;53.49;100391.06;4863615;28;123965;-75
2021/07/28 10:40:26;;;;;;;10.07;6.55;;;;;;;25.04;54.38;100386.91;4862381;28;122356;-75
2021/07/28 10:42:53;;;;;;;9.90;6.60;;;;;;;25.06;55.17;100385.06;4846327;28;122652;-74
2021/07/28 10:45:18;;;;;;;8.40;5.72;;;;;;;25.17;54.78;100383.97;4847092;28;122463;-75
2021/07/28 10:47:48;;;;;;;10.32;6.05;;;;;;;25.27;54.58;100386.94;4867088;28;122511;-75
2021/07/28 10:50:20;;;;;;;9.55;6.38;;;;;;;25.31;54.82;100387.31;4859981;28;125113;-76
2021/07/28 10:52:49;;;;;;;8.13;5.43;;;;;;;25.32;54.50;100383.97;4843098;28;122520;-76
2021/07/28 10:55:22;;;;;;;7.45;5.90;;;;;;;25.31;54.63;100388.06;4867796;28;121910;-75
2021/07/28 10:58:11;;;;;;;9.27;6.55;;;;;;;25.30;54.66;100380.97;4863859;28;122807;-75
2021/07/28 11:00:50;;;;;;;10.20;6.68;;;;;;;25.27;54.21;100372.91;4859849;28;122645;-75
2021/07/28 11:03:17;;;;;;;11.23;7.38;;;;;;;25.33;54.52;100376.31;4862947;28;122909;-75
2021/07/28 11:05:48;;;;;;;8.15;6.45;;;;;;;25.30;54.82;100380.22;4846521;28;127175;-75
2021/07/28 11:08:20;;;;;;;8.52;7.07;;;;;;;25.22;55.07;100371.78;4862950;28;122521;-75
2021/07/28 11:10:58;;;;;;;9.82;6.82;;;;;;;25.16;55.05;100381.72;4864701;28;122071;-75
2021/07/28 11:13:30;;;;;;;8.85;6.28;;;;;;;25.09;55.00;100378.34;4863402;28;122189;-75
2021/07/28 11:16:06;;;;;;;10.07;6.80;;;;;;;25.06;55.41;100373.81;4831512;28;122394;-76
2021/07/28 11:18:41;;;;;;;9.15;6.40;;;;;;;25.02;55.45;100364.28;4877859;28;122126;-75
2021/07/28 11:21:31;;;;;;;10.02;6.90;;;;;;;25.09;55.38;100372.00;4866340;28;122901;-76